Time;durP1;ratioP1;P1;durP2;ratioP2;P2;SDS_P1;SDS_P2;PMS_P1;PMS_P2;Temp;Humidity;BMP_temperature;BMP_pressure;BME280_temperature;BME280_humidity;BME280_pressure;Samples;Min_cycle;Max_cycle;Signal;HPM_P1;HPM_P2
2022/12/04 00:00:45;;;;;;;40.40;18.50;;;2.00;43.50;;;;;;4964686;28;20473;-69
2022/12/04 00:03:12;;;;;;;40.27;16.63;;;2.00;43.40;;;;;;4963899;28;20488;-70
2022/12/04 00:05:39;;;;;;;40.17;17.63;;;2.00;43.50;;;;;;4958760;28;20481;-69
2022/12/04 00:08:06;;;;;;;41.97;17.80;;;2.00;43.60;;;;;;4956544;28;20982;-69
2022/12/04 00:10:33;;;;;;;38.20;17.77;;;2.00;43.70;;;;;;4961717;28;20593;-68
2022/12/04 00:13:01;;;;;;;37.20;17.73;;;1.90;43.90;;;;;;4961343;28;20477;-68
2022/12/04 00:15:28;;;;;;;35.33;15.67;;;1.90;44.10;;;;;;4961209;28;20454;-68
2022/12/04 00:17:55;;;;;;;35.43;15.60;;;1.90;43.90;;;;;;4964196;28;20876;-68
2022/12/04 00:20:22;;;;;;;38.50;17.83;;;1.90;43.90;;;;;;4963753;28;20508;-68
2022/12/04 00:22:49;;;;;;;34.07;17.83;;;1.90;43.80;;;;;;4963022;28;20516;-68
2022/12/04 00:25:16;;;;;;;39.90;15.93;;;1.90;44.10;;;;;;4963977;28;20477;-68
2022/12/04 00:27:43;;;;;;;40.50;18.87;;;1.90;44.00;;;;;;4963885;28;20468;-69
2022/12/04 00:30:12;;;;;;;41.83;18.80;;;2.00;43.80;;;;;;4963848;28;20516;-69
2022/12/04 00:32:39;;;;;;;39.53;17.80;;;1.90;44.00;;;;;;4963396;28;20482;-69
2022/12/04 00:35:06;;;;;;;39.33;19.70;;;1.90;44.10;;;;;;4959786;28;20460;-69
2022/12/04 00:37:33;;;;;;;42.13;18.77;;;1.90;44.20;;;;;;4970482;28;20854;-67
2022/12/04 00:40:00;;;;;;;35.60;17.77;;;2.00;43.90;;;;;;4962593;28;20484;-70
2022/12/04 00:42:27;;;;;;;42.93;19.40;;;2.00;44.20;;;;;;4969975;28;20817;-68
2022/12/04 00:44:53;;;;;;;47.33;20.20;;;2.00;44.30;;;;;;4969441;28;21001;-70
2022/12/04 00:47:22;;;;;;;40.23;18.93;;;2.00;44.20;;;;;;4970524;28;20500;-68
2022/12/04 00:49:48;;;;;;;38.83;18.93;;;2.00;44.10;;;;;;4969085;28;20493;-70
2022/12/04 00:52:15;;;;;;;38.67;18.80;;;2.00;44.00;;;;;;4960039;28;20465;-70
2022/12/04 00:54:42;;;;;;;40.10;16.57;;;2.00;44.00;;;;;;4965958;28;20461;-67
2022/12/04 00:57:09;;;;;;;40.37;18.43;;;2.00;44.00;;;;;;4965662;28;20465;-69
2022/12/04 00:59:37;;;;;;;38.60;17.80;;;2.10;43.80;;;;;;4969324;28;20480;-67
2022/12/04 01:02:04;;;;;;;36.90;18.40;;;2.10;43.70;;;;;;4960491;28;21017;-70
2022/12/04 01:04:32;;;;;;;40.93;18.20;;;2.10;43.70;;;;;;4962766;28;20465;-70
2022/12/04 01:06:59;;;;;;;41.53;18.40;;;2.10;43.50;;;;;;4965077;28;20486;-70
2022/12/04 01:09:26;;;;;;;44.67;18.10;;;2.10;43.50;;;;;;4962986;28;20488;-69
2022/12/04 01:11:53;;;;;;;35.30;16.20;;;2.10;43.70;;;;;;4960425;28;20462;-69
2022/12/04 01:14:19;;;;;;;35.57;17.43;;;2.10;43.00;;;;;;4964511;28;20465;-69
2022/12/04 01:16:47;;;;;;;33.73;15.60;;;2.10;43.00;;;;;;4957354;28;20464;-70
2022/12/04 01:19:13;;;;;;;32.57;17.10;;;2.10;43.30;;;;;;4968522;28;20556;-69
2022/12/04 01:21:42;;;;;;;35.23;16.40;;;2.10;43.10;;;;;;4968432;28;20469;-69
2022/12/04 01:24:09;;;;;;;35.20;16.20;;;2.10;43.10;;;;;;4966499;28;20468;-68
2022/12/04 01:26:36;;;;;;;34.07;15.40;;;2.20;42.90;;;;;;4962848;28;20492;-69
2022/12/04 01:29:03;;;;;;;37.90;18.00;;;2.10;43.00;;;;;;4969399;28;20465;-69
2022/12/04 01:31:30;;;;;;;38.43;16.20;;;2.10;43.20;;;;;;4974272;28;20476;-69
2022/12/04 01:33:57;;;;;;;40.03;17.00;;;2.00;43.40;;;;;;4971723;28;20469;-69
2022/12/04 01:36:26;;;;;;;33.10;15.13;;;2.10;43.60;;;;;;4961876;28;20500;-69
2022/12/04 01:38:54;;;;;;;34.63;16.80;;;2.10;43.40;;;;;;4963517;28;20473;-69
2022/12/04 01:41:24;;;;;;;39.07;17.00;;;2.00;43.30;;;;;;4964389;28;20996;-69
2022/12/04 01:44:08;;;;;;;33.50;17.17;;;2.00;43.30;;;;;;4967510;28;20691;-69
2022/12/04 01:46:35;;;;;;;37.80;15.67;;;2.00;43.50;;;;;;4964849;28;20484;-69
2022/12/04 01:49:03;;;;;;;36.07;17.23;;;2.00;43.40;;;;;;4967989;28;20461;-69
2022/12/04 01:51:36;;;;;;;36.60;16.77;;;2.00;43.30;;;;;;4966575;28;20461;-68
2022/12/04 01:54:07;;;;;;;36.87;15.90;;;2.00;43.30;;;;;;4960285;28;20476;-69
2022/12/04 01:56:41;;;;;;;33.23;15.03;;;2.00;43.30;;;;;;4957929;28;20874;-69
2022/12/04 01:59:09;;;;;;;33.70;16.30;;;1.90;43.70;;;;;;4960714;28;20490;-69
2022/12/04 02:01:42;;;;;;;45.13;17.07;;;1.90;43.90;;;;;;4969372;28;21064;-69
2022/12/04 02:04:09;;;;;;;42.90;19.03;;;1.90;44.10;;;;;;4964867;28;20863;-69
2022/12/04 02:06:36;;;;;;;41.47;18.43;;;2.00;44.10;;;;;;4962654;28;21055;-69
2022/12/04 02:09:04;;;;;;;43.30;18.87;;;2.00;44.10;;;;;;4964650;28;20476;-69
2022/12/04 02:11:37;;;;;;;39.77;18.40;;;2.00;44.20;;;;;;4963058;28;20845;-69
2022/12/04 02:14:13;;;;;;;37.40;15.80;;;2.00;44.30;;;;;;4973153;28;20461;-69
2022/12/04 02:16:46;;;;;;;48.27;17.83;;;2.00;44.30;;;;;;4970273;28;20464;-69
2022/12/04 02:19:49;;;;;;;34.57;16.53;;;2.10;44.20;;;;;;4966528;28;20504;-69
2022/12/04 02:22:29;;;;;;;39.60;17.40;;;2.10;44.10;;;;;;4966009;28;20461;-69
2022/12/04 02:25:05;;;;;;;36.83;17.53;;;2.10;44.10;;;;;;4971692;28;20480;-69
2022/12/04 02:27:58;;;;;;;39.60;17.83;;;2.20;43.90;;;;;;4969762;28;20485;-69
2022/12/04 02:30:29;;;;;;;40.70;16.83;;;2.10;43.80;;;;;;4966220;28;20485;-69
2022/12/04 02:33:02;;;;;;;39.33;17.40;;;2.10;43.80;;;;;;4967847;28;21041;-69
2022/12/04 02:35:35;;;;;;;38.00;18.57;;;2.20;43.90;;;;;;4967224;28;20488;-69
2022/12/04 02:38:10;;;;;;;40.97;16.03;;;2.20;43.90;;;;;;4967886;28;20468;-69
2022/12/04 02:40:42;;;;;;;44.47;18.47;;;2.20;43.80;;;;;;4965644;28;20480;-69
2022/12/04 02:43:16;;;;;;;42.93;17.33;;;2.30;43.90;;;;;;4968224;28;20469;-69
2022/12/04 02:45:46;;;;;;;37.40;17.43;;;2.30;43.70;;;;;;4967033;28;20458;-69
2022/12/04 02:48:19;;;;;;;40.60;18.20;;;2.30;43.60;;;;;;4967495;28;20481;-69
2022/12/04 02:50:48;;;;;;;44.30;18.83;;;2.30;43.60;;;;;;4965092;28;20482;-69
2022/12/04 02:53:19;;;;;;;48.87;19.70;;;2.30;43.30;;;;;;4971818;28;20489;-68
2022/12/04 02:55:50;;;;;;;42.10;19.00;;;2.30;43.20;;;;;;4970310;28;20468;-69
2022/12/04 02:58:24;;;;;;;42.47;16.10;;;2.30;43.10;;;;;;4966045;28;20468;-68
2022/12/04 03:00:54;;;;;;;46.53;17.77;;;2.30;43.20;;;;;;4965412;28;20466;-69
2022/12/04 03:03:26;;;;;;;39.07;17.10;;;2.40;43.10;;;;;;4973171;28;20496;-69
2022/12/04 03:05:58;;;;;;;43.50;18.20;;;2.30;43.10;;;;;;4967081;28;21179;-69
2022/12/04 03:08:29;;;;;;;41.03;18.60;;;2.40;43.20;;;;;;4973873;28;20492;-69
2022/12/04 03:11:00;;;;;;;39.80;18.77;;;2.40;42.90;;;;;;4967149;28;20482;-69
2022/12/04 03:13:32;;;;;;;44.80;18.10;;;2.40;42.70;;;;;;4970661;28;21094;-69
2022/12/04 03:16:04;;;;;;;38.90;18.13;;;2.30;43.00;;;;;;4967543;28;20458;-69
2022/12/04 03:18:35;;;;;;;39.93;19.03;;;2.30;42.80;;;;;;4974148;28;20457;-69
2022/12/04 03:21:07;;;;;;;37.87;17.33;;;2.30;43.00;;;;;;4969886;28;21219;-69
2022/12/04 03:23:37;;;;;;;43.93;18.17;;;2.20;43.20;;;;;;4972891;28;20524;-69
2022/12/04 03:26:11;;;;;;;44.40;20.30;;;2.20;43.50;;;;;;4965706;28;20491;-69
2022/12/04 03:28:51;;;;;;;35.87;17.13;;;2.30;43.60;;;;;;4969355;28;20472;-69
2022/12/04 03:31:21;;;;;;;39.87;17.43;;;2.30;43.70;;;;;;4969060;28;20489;-69
2022/12/04 03:33:49;;;;;;;47.90;20.30;;;2.30;43.60;;;;;;4967684;28;20466;-69
2022/12/04 03:36:22;;;;;;;42.03;19.17;;;2.30;43.50;;;;;;4968512;28;20487;-69
2022/12/04 03:38:57;;;;;;;47.60;19.87;;;2.30;43.50;;;;;;4966374;28;20465;-69
2022/12/04 03:41:30;;;;;;;40.57;17.97;;;2.30;43.50;;;;;;4969535;28;20460;-69
2022/12/04 03:44:03;;;;;;;37.60;16.93;;;2.30;43.10;;;;;;4977716;28;20488;-69
2022/12/04 03:46:35;;;;;;;39.67;17.97;;;2.30;43.10;;;;;;4955103;28;20481;-69
2022/12/04 03:49:11;;;;;;;36.17;16.63;;;2.20;43.10;;;;;;4968080;28;20462;-69
2022/12/04 03:51:42;;;;;;;36.33;17.20;;;2.20;43.10;;;;;;4955432;28;21240;-69
2022/12/04 03:54:13;;;;;;;34.00;16.10;;;2.20;43.10;;;;;;4961468;28;20557;-69
2022/12/04 03:56:43;;;;;;;37.00;18.83;;;2.20;43.20;;;;;;4961033;28;20463;-69
2022/12/04 03:59:17;;;;;;;33.10;15.53;;;2.10;43.60;;;;;;4969015;28;20477;-69
2022/12/04 04:01:48;;;;;;;32.50;15.17;;;2.10;43.60;;;;;;4963160;28;20884;-69
2022/12/04 04:04:21;;;;;;;31.10;15.67;;;2.10;43.40;;;;;;4964536;28;21120;-69
2022/12/04 04:06:53;;;;;;;34.50;16.30;;;2.00;43.50;;;;;;4966526;28;20491;-69
2022/12/04 04:09:24;;;;;;;31.70;14.80;;;2.00;43.80;;;;;;4969317;28;20508;-69
2022/12/04 04:11:56;;;;;;;37.87;16.67;;;2.00;43.50;;;;;;4966817;28;20469;-69
2022/12/04 04:25:43;;;;;;;35.20;14.37;;;2.00;44.10;;;;;;4970458;28;20468;-69
2022/12/04 04:28:28;;;;;;;26.47;13.77;;;2.00;44.00;;;;;;4966266;28;20477;-69
2022/12/04 04:31:04;;;;;;;30.83;15.57;;;2.10;43.70;;;;;;4964181;28;20486;-69
2022/12/04 04:33:35;;;;;;;29.40;14.23;;;2.00;43.40;;;;;;4967221;28;20462;-69
2022/12/04 04:36:07;;;;;;;31.03;15.17;;;2.00;43.50;;;;;;4964247;28;20462;-69
2022/12/04 04:38:40;;;;;;;26.80;13.53;;;2.00;44.00;;;;;;4972210;28;20468;-69
2022/12/04 04:41:13;;;;;;;39.00;16.13;;;2.00;44.00;;;;;;4970149;28;20484;-68
2022/12/04 04:43:45;;;;;;;26.87;13.87;;;2.00;44.10;;;;;;4969612;28;20503;-69
2022/12/04 04:46:18;;;;;;;28.50;13.90;;;2.00;43.80;;;;;;4962449;28;20477;-69
2022/12/04 04:48:49;;;;;;;32.40;15.47;;;2.00;43.90;;;;;;4964133;28;20636;-68
2022/12/04 04:51:17;;;;;;;27.60;13.00;;;2.10;43.90;;;;;;4966338;28;21000;-68
2022/12/04 04:53:47;;;;;;;30.03;14.77;;;2.10;43.90;;;;;;4970695;28;20468;-69
2022/12/04 04:56:14;;;;;;;29.40;14.50;;;2.10;43.80;;;;;;4963746;28;20646;-68
2022/12/04 04:58:42;;;;;;;28.93;12.83;;;2.10;43.90;;;;;;4962166;28;20489;-69
2022/12/04 05:01:13;;;;;;;25.77;13.80;;;2.10;43.60;;;;;;4970364;28;20497;-69
2022/12/04 05:03:41;;;;;;;33.33;14.67;;;2.20;43.60;;;;;;4967979;28;20468;-69
2022/12/04 05:06:07;;;;;;;27.53;14.13;;;2.20;43.60;;;;;;4970831;28;20469;-67
2022/12/04 05:08:35;;;;;;;27.50;13.67;;;2.20;43.50;;;;;;4969308;28;20977;-69
2022/12/04 05:11:02;;;;;;;29.57;13.10;;;2.20;43.00;;;;;;4971219;28;20577;-67
2022/12/04 05:13:30;;;;;;;27.00;14.07;;;2.20;42.80;;;;;;4966120;28;20466;-68
2022/12/04 05:15:58;;;;;;;30.47;14.53;;;2.20;42.90;;;;;;4967922;28;20466;-68
2022/12/04 05:18:27;;;;;;;36.27;13.77;;;2.20;43.10;;;;;;4974488;28;20484;-68
2022/12/04 05:20:53;;;;;;;29.20;13.87;;;2.20;43.30;;;;;;4966796;28;20489;-70
2022/12/04 05:23:20;;;;;;;31.07;15.40;;;2.20;43.40;;;;;;4992267;22;20950;-72
2022/12/04 05:25:47;;;;;;;30.13;15.40;;;2.20;43.50;;;;;;5005406;28;20459;-72
2022/12/04 05:28:14;;;;;;;31.57;14.07;;;2.20;43.50;;;;;;5001924;28;20484;-72
2022/12/04 05:30:40;;;;;;;26.13;13.33;;;2.30;43.60;;;;;;5005638;28;20813;-72
2022/12/04 05:33:07;;;;;;;35.03;16.10;;;2.30;43.60;;;;;;5013558;28;20999;-73
2022/12/04 05:35:35;;;;;;;26.37;13.00;;;2.30;43.40;;;;;;5006137;28;20459;-72
2022/12/04 05:38:02;;;;;;;27.30;13.47;;;2.30;43.30;;;;;;4999792;28;20472;-72
2022/12/04 05:40:29;;;;;;;22.43;11.90;;;2.30;43.10;;;;;;5005750;28;20451;-72
2022/12/04 05:42:55;;;;;;;30.53;13.83;;;2.30;43.20;;;;;;5004465;28;20466;-73
2022/12/04 05:45:22;;;;;;;27.00;13.37;;;2.30;43.20;;;;;;5001387;28;20947;-72
2022/12/04 05:47:49;;;;;;;26.97;14.40;;;2.30;43.20;;;;;;5005264;28;21041;-72
2022/12/04 05:50:16;;;;;;;25.60;12.63;;;2.30;43.10;;;;;;5004801;28;20539;-72
2022/12/04 05:52:44;;;;;;;28.47;13.00;;;2.30;43.10;;;;;;5003742;28;20456;-72
2022/12/04 05:55:10;;;;;;;27.37;13.50;;;2.20;43.20;;;;;;5002454;28;20456;-72
2022/12/04 05:57:37;;;;;;;27.37;12.53;;;2.30;43.50;;;;;;4998344;28;20459;-72
2022/12/04 06:00:05;;;;;;;25.03;12.70;;;2.30;43.70;;;;;;5004915;28;20463;-72
2022/12/04 06:02:33;;;;;;;25.43;13.23;;;2.30;43.70;;;;;;5000550;28;20488;-72
2022/12/04 06:05:00;;;;;;;24.60;13.40;;;2.30;43.60;;;;;;5001346;28;20979;-72
2022/12/04 06:07:27;;;;;;;30.70;14.27;;;2.30;43.60;;;;;;4995942;28;20485;-72
2022/12/04 06:09:56;;;;;;;28.50;12.97;;;2.40;44.20;;;;;;4996818;28;20460;-73
2022/12/04 06:12:23;;;;;;;25.93;12.63;;;2.40;43.50;;;;;;4996245;28;21031;-73
2022/12/04 06:14:49;;;;;;;26.17;13.90;;;2.50;43.30;;;;;;5001930;28;20484;-73
2022/12/04 06:17:16;;;;;;;29.93;13.33;;;2.50;43.00;;;;;;5007739;28;20463;-73
2022/12/04 06:19:43;;;;;;;31.10;14.63;;;2.40;43.00;;;;;;4995456;28;20809;-72
2022/12/04 06:22:10;;;;;;;27.97;14.30;;;2.40;43.10;;;;;;5002442;28;20543;-72
2022/12/04 06:24:36;;;;;;;27.87;14.47;;;2.40;43.20;;;;;;5004998;28;20999;-72
2022/12/04 06:27:05;;;;;;;27.20;12.93;;;2.40;43.50;;;;;;4998055;28;20461;-72
2022/12/04 06:29:32;;;;;;;34.70;14.80;;;2.50;43.50;;;;;;4999912;28;20459;-72
2022/12/04 06:31:59;;;;;;;31.23;14.20;;;2.40;43.30;;;;;;4999908;28;20482;-72
2022/12/04 06:34:25;;;;;;;30.07;13.20;;;2.40;43.30;;;;;;4992713;28;20503;-72
2022/12/04 06:36:52;;;;;;;32.63;15.50;;;2.40;43.70;;;;;;5001572;28;20490;-72
2022/12/04 06:39:19;;;;;;;25.73;13.20;;;2.30;43.90;;;;;;4997130;28;21104;-72
2022/12/04 06:41:46;;;;;;;26.63;12.93;;;2.30;44.00;;;;;;5003928;28;20943;-72
2022/12/04 06:44:15;;;;;;;33.80;14.13;;;2.30;44.20;;;;;;5001649;28;21260;-72
2022/12/04 06:46:42;;;;;;;32.70;14.10;;;2.30;44.40;;;;;;5005033;28;20471;-72
2022/12/04 06:49:10;;;;;;;30.20;13.47;;;2.30;44.70;;;;;;5001495;28;20479;-72
2022/12/04 06:51:39;;;;;;;26.00;13.73;;;2.40;44.40;;;;;;4998128;28;20548;-72
2022/12/04 06:54:06;;;;;;;29.53;14.87;;;2.40;44.50;;;;;;4998984;28;20488;-72
2022/12/04 06:56:33;;;;;;;29.30;13.87;;;2.40;44.40;;;;;;5000581;28;20456;-72
2022/12/04 06:59:01;;;;;;;35.40;15.70;;;2.40;44.40;;;;;;4996688;28;20460;-72
2022/12/04 07:01:31;;;;;;;29.50;14.30;;;2.50;44.40;;;;;;5004467;28;20854;-72
2022/12/04 07:03:59;;;;;;;35.80;15.00;;;2.50;44.20;;;;;;4994739;28;20573;-72
2022/12/04 07:06:28;;;;;;;31.00;15.50;;;2.50;44.20;;;;;;5002680;28;20523;-72
2022/12/04 07:08:58;;;;;;;32.10;16.10;;;2.60;43.90;;;;;;5001062;28;20507;-72
2022/12/04 07:11:25;;;;;;;29.07;14.43;;;2.60;43.50;;;;;;4998071;28;20469;-72
2022/12/04 07:13:52;;;;;;;31.20;12.77;;;2.60;43.60;;;;;;5004573;28;20487;-73
2022/12/04 07:16:20;;;;;;;30.73;14.77;;;2.60;43.60;;;;;;5003301;28;20456;-72
2022/12/04 07:18:52;;;;;;;33.43;15.23;;;2.60;43.70;;;;;;5000518;28;20463;-72
2022/12/04 07:21:20;;;;;;;28.77;14.93;;;2.50;44.00;;;;;;5002894;28;20952;-72
2022/12/04 07:23:49;;;;;;;31.17;15.07;;;2.60;44.10;;;;;;5002710;28;20498;-72
2022/12/04 07:26:16;;;;;;;35.07;16.20;;;2.60;44.20;;;;;;4997893;28;20464;-71
2022/12/04 07:28:44;;;;;;;31.83;14.70;;;2.60;44.20;;;;;;5002094;28;20575;-74
2022/12/04 07:31:13;;;;;;;34.90;14.60;;;2.60;44.10;;;;;;5003238;28;20494;-73
2022/12/04 07:33:41;;;;;;;33.00;14.80;;;2.70;44.10;;;;;;5000961;28;20476;-71
2022/12/04 07:36:13;;;;;;;37.60;15.40;;;2.70;44.10;;;;;;4998942;28;20463;-71
2022/12/04 07:38:40;;;;;;;34.60;14.83;;;2.70;44.00;;;;;;4998347;28;20955;-72
2022/12/04 07:41:08;;;;;;;31.67;15.00;;;2.70;43.70;;;;;;4994576;28;21013;-73
2022/12/04 07:43:35;;;;;;;38.90;15.30;;;2.70;43.60;;;;;;5000856;28;20488;-72
2022/12/04 07:46:05;;;;;;;33.23;16.37;;;2.70;44.00;;;;;;5000714;28;20452;-73
2022/12/04 07:48:32;;;;;;;37.60;15.23;;;2.70;44.00;;;;;;4999452;28;20480;-72
2022/12/04 07:51:03;;;;;;;33.13;15.40;;;2.70;44.20;;;;;;5000618;28;20456;-72
2022/12/04 07:53:31;;;;;;;41.10;16.70;;;2.70;44.30;;;;;;5003321;28;20483;-73
2022/12/04 07:55:58;;;;;;;40.10;16.50;;;2.70;44.20;;;;;;4998596;28;20456;-73
2022/12/04 07:58:24;;;;;;;33.87;15.90;;;2.70;44.40;;;;;;4999107;28;20458;-73
2022/12/04 08:00:51;;;;;;;34.40;15.17;;;2.70;44.50;;;;;;5002283;28;20486;-73
2022/12/04 08:03:18;;;;;;;49.43;22.97;;;2.70;44.50;;;;;;5000096;28;21188;-73
2022/12/04 08:05:45;;;;;;;34.20;16.47;;;2.80;44.50;;;;;;4999083;28;20453;-73
2022/12/04 08:08:11;;;;;;;38.70;17.80;;;2.80;44.40;;;;;;4999056;28;21271;-73
2022/12/04 08:10:41;;;;;;;53.30;16.97;;;2.80;44.30;;;;;;5002597;28;20844;-74
2022/12/04 08:13:08;;;;;;;32.20;15.23;;;2.90;44.60;;;;;;5002490;28;20502;-74
2022/12/04 08:15:35;;;;;;;48.40;19.00;;;2.90;44.20;;;;;;4997038;28;20483;-71
2022/12/04 08:18:01;;;;;;;121.77;21.07;;;2.90;44.20;;;;;;4988937;28;20917;-64
2022/12/04 08:20:28;;;;;;;70.80;18.37;;;2.90;44.20;;;;;;5000032;28;20463;-63
2022/12/04 08:22:55;;;;;;;40.53;17.17;;;2.90;44.30;;;;;;5001557;28;20472;-63
2022/12/04 08:25:22;;;;;;;35.60;16.90;;;2.90;44.50;;;;;;4996768;28;20468;-64
2022/12/04 08:27:50;;;;;;;34.90;15.83;;;2.90;44.40;;;;;;4994922;28;20562;-63
2022/12/04 08:30:17;;;;;;;56.77;18.77;;;2.90;44.60;;;;;;5002567;28;20468;-66
2022/12/04 08:32:44;;;;;;;73.60;20.37;;;2.90;44.20;;;;;;5001903;28;20478;-64
2022/12/04 08:35:11;;;;;;;46.73;17.70;;;2.90;44.30;;;;;;5003007;28;20460;-63
2022/12/04 08:37:37;;;;;;;39.33;17.03;;;2.90;44.30;;;;;;4997474;28;20464;-63
2022/12/04 08:40:05;;;;;;;35.50;16.63;;;2.90;44.50;;;;;;5001588;28;20483;-63
2022/12/04 08:42:32;;;;;;;42.70;18.30;;;2.90;44.70;;;;;;4999436;28;20482;-64
2022/12/04 08:45:00;;;;;;;38.83;15.43;;;2.90;44.90;;;;;;4998267;28;20488;-63
2022/12/04 08:47:27;;;;;;;41.27;18.20;;;2.90;44.90;;;;;;5001750;28;21047;-63
2022/12/04 08:49:54;;;;;;;41.83;18.10;;;2.90;44.90;;;;;;5000126;28;20476;-64
2022/12/04 08:52:20;;;;;;;38.33;17.70;;;3.00;44.80;;;;;;4994866;28;20492;-65
2022/12/04 08:54:49;;;;;;;42.53;21.20;;;3.00;44.70;;;;;;5003495;28;20489;-64
2022/12/04 08:57:16;;;;;;;44.47;19.60;;;3.10;45.40;;;;;;5005423;28;20460;-68
2022/12/04 08:59:43;;;;;;;59.67;28.67;;;3.10;44.60;;;;;;5007047;28;20452;-69
2022/12/04 09:02:11;;;;;;;39.60;19.30;;;3.20;44.30;;;;;;5003846;28;20498;-69
2022/12/04 09:04:38;;;;;;;40.70;19.10;;;3.20;44.20;;;;;;5000648;28;21046;-69
2022/12/04 09:07:05;;;;;;;33.27;16.77;;;3.20;44.20;;;;;;4999613;28;20466;-69
2022/12/04 09:09:32;;;;;;;60.63;19.07;;;3.30;44.10;;;;;;4999960;28;20483;-69
2022/12/04 09:11:59;;;;;;;39.97;18.07;;;3.30;44.00;;;;;;5006435;28;21260;-70
2022/12/04 09:14:25;;;;;;;36.10;17.73;;;3.30;43.90;;;;;;5000846;28;20476;-67
2022/12/04 09:16:52;;;;;;;34.70;16.23;;;3.30;44.10;;;;;;5002675;28;20894;-67
2022/12/04 09:19:20;;;;;;;35.27;15.80;;;3.30;44.00;;;;;;5002380;28;20487;-68
2022/12/04 09:21:47;;;;;;;39.40;16.23;;;3.30;44.10;;;;;;5000261;28;20455;-68
2022/12/04 09:24:14;;;;;;;41.23;17.00;;;3.40;43.80;;;;;;4998344;28;20540;-68
2022/12/04 09:26:41;;;;;;;35.50;14.57;;;3.40;43.40;;;;;;5001004;28;20982;-68
2022/12/04 09:29:08;;;;;;;62.20;17.40;;;3.40;43.30;;;;;;5000370;28;20536;-69
2022/12/04 09:31:35;;;;;;;48.97;17.63;;;3.40;43.30;;;;;;5001139;28;20880;-67
2022/12/04 09:34:02;;;;;;;39.23;14.93;;;3.40;43.20;;;;;;4993327;28;20490;-64
2022/12/04 09:36:30;;;;;;;33.13;15.07;;;3.40;43.30;;;;;;4998779;28;20465;-66
2022/12/04 09:38:57;;;;;;;33.93;15.73;;;3.40;43.40;;;;;;4997115;28;20457;-66
2022/12/04 09:41:47;;;;;;;35.13;16.40;;;3.30;43.40;;;;;;5007032;28;20464;-63
2022/12/04 09:44:20;;;;;;;32.00;15.47;;;3.30;43.60;;;;;;5002631;28;21030;-63
2022/12/04 09:46:51;;;;;;;37.43;15.10;;;3.30;43.80;;;;;;5002722;28;21249;-64
2022/12/04 09:49:23;;;;;;;30.87;14.87;;;3.30;43.70;;;;;;5003773;28;20490;-65
2022/12/04 09:51:54;;;;;;;29.70;15.40;;;3.30;43.90;;;;;;5007829;28;20466;-62
2022/12/04 09:54:25;;;;;;;33.57;14.80;;;3.30;43.70;;;;;;5002972;28;20483;-65
2022/12/04 09:56:58;;;;;;;33.30;15.70;;;3.20;43.80;;;;;;5005826;28;20471;-61
2022/12/04 09:59:27;;;;;;;30.03;14.87;;;3.30;44.10;;;;;;5004390;28;20472;-61
2022/12/04 10:02:00;;;;;;;30.97;14.17;;;3.30;44.30;;;;;;5006261;28;20483;-62
2022/12/04 10:04:27;;;;;;;46.33;22.43;;;3.40;44.20;;;;;;5006758;28;20480;-59
2022/12/04 10:07:02;;;;;;;34.40;17.70;;;3.40;44.00;;;;;;5001700;28;20460;-61
2022/12/04 10:09:38;;;;;;;28.90;14.30;;;3.40;44.00;;;;;;5006496;28;20483;-64
2022/12/04 10:12:14;;;;;;;28.63;14.40;;;3.50;43.90;;;;;;5002611;28;20831;-71
2022/12/04 10:14:59;;;;;;;26.30;14.27;;;3.50;43.80;;;;;;5004081;28;20483;-69
2022/12/04 10:17:38;;;;;;;28.13;14.73;;;3.50;43.70;;;;;;4996068;28;20463;-65
2022/12/04 10:20:18;;;;;;;26.00;13.80;;;3.50;43.70;;;;;;5002163;28;20455;-66
2022/12/04 10:22:57;;;;;;;28.63;14.20;;;3.50;43.60;;;;;;4999508;28;20485;-66
2022/12/04 10:25:26;;;;;;;33.30;15.97;;;3.50;43.60;;;;;;5002921;28;20460;-69
2022/12/04 10:27:58;;;;;;;32.13;14.50;;;3.60;43.40;;;;;;4999886;28;20471;-77
2022/12/04 10:30:28;;;;;;;34.37;13.73;;;3.60;43.00;;;;;;5003881;28;20479;-76
2022/12/04 10:32:59;;;;;;;30.13;15.17;;;3.60;42.90;;;;;;5001887;28;20470;-74
2022/12/04 10:35:29;;;;;;;31.33;14.70;;;3.50;42.70;;;;;;4999321;28;20466;-75
2022/12/04 10:37:59;;;;;;;31.03;13.40;;;3.50;42.60;;;;;;5000804;28;20499;-74
2022/12/04 10:40:32;;;;;;;25.80;13.63;;;3.50;42.60;;;;;;5005282;28;20451;-64
2022/12/04 10:43:11;;;;;;;28.10;13.53;;;3.40;42.70;;;;;;4999506;28;20463;-62
2022/12/04 10:45:38;;;;;;;24.77;12.87;;;3.40;43.00;;;;;;5002883;28;20468;-63
2022/12/04 10:48:06;;;;;;;28.43;12.20;;;3.30;43.30;;;;;;5001095;28;20483;-62
2022/12/04 10:50:33;;;;;;;27.33;12.57;;;3.40;43.20;;;;;;4994716;28;20464;-63
2022/12/04 10:53:02;;;;;;;22.73;11.77;;;3.40;43.20;;;;;;5001557;28;20468;-68
2022/12/04 10:55:30;;;;;;;28.07;13.97;;;3.30;43.00;;;;;;4999013;28;20539;-65
2022/12/04 10:57:57;;;;;;;28.63;13.33;;;3.30;43.10;;;;;;4998334;28;20475;-65
2022/12/04 11:00:27;;;;;;;27.87;14.07;;;3.30;43.50;;;;;;4998106;28;20452;-64
2022/12/04 11:02:56;;;;;;;23.87;12.53;;;3.30;43.60;;;;;;4994021;28;20464;-66
2022/12/04 11:05:26;;;;;;;31.87;13.97;;;3.30;43.70;;;;;;4998200;28;20471;-65
2022/12/04 11:07:55;;;;;;;33.63;16.10;;;3.40;43.70;;;;;;4994734;28;20517;-72
2022/12/04 11:10:30;;;;;;;28.20;13.13;;;3.40;43.80;;;;;;4997436;28;20515;-67
2022/12/04 11:13:00;;;;;;;28.17;13.83;;;3.40;43.80;;;;;;4999213;28;20518;-67
2022/12/04 11:15:27;;;;;;;32.53;15.43;;;3.50;43.90;;;;;;5000940;28;20986;-65
2022/12/04 11:17:54;;;;;;;30.03;14.07;;;3.50;43.80;;;;;;4995158;28;20472;-66
2022/12/04 11:20:23;;;;;;;26.90;13.13;;;3.60;43.40;;;;;;4995415;28;20478;-67
2022/12/04 11:22:53;;;;;;;23.20;13.07;;;3.60;43.40;;;;;;4999390;28;20483;-67
2022/12/04 11:25:22;;;;;;;26.40;13.07;;;3.70;43.40;;;;;;4996652;28;20457;-66
2022/12/04 11:27:54;;;;;;;30.20;14.27;;;3.70;43.40;;;;;;4995197;28;20559;-66
2022/12/04 11:30:26;;;;;;;26.77;13.70;;;3.80;43.10;;;;;;4993345;28;20492;-66
2022/12/04 11:32:54;;;;;;;26.63;13.17;;;3.70;42.70;;;;;;5004581;23;20447;-64
2022/12/04 11:35:24;;;;;;;27.90;13.60;;;3.80;42.70;;;;;;4989246;28;20791;-65
2022/12/04 11:37:55;;;;;;;31.70;14.13;;;3.80;42.90;;;;;;4995119;28;20463;-64
2022/12/04 11:40:23;;;;;;;26.40;12.93;;;3.80;42.70;;;;;;5005167;28;20463;-65
2022/12/04 11:43:06;;;;;;;27.03;13.40;;;3.80;42.80;;;;;;4996858;28;20488;-64
2022/12/04 11:45:33;;;;;;;31.60;15.23;;;3.90;43.00;;;;;;4996539;28;20478;-64
2022/12/04 11:48:02;;;;;;;33.90;15.53;;;3.90;42.80;;;;;;5002782;28;20460;-66
2022/12/04 11:50:37;;;;;;;28.50;14.20;;;4.00;42.70;;;;;;5003114;28;20829;-63
2022/12/04 11:53:13;;;;;;;28.30;15.17;;;4.10;42.60;;;;;;4999406;28;20483;-65
2022/12/04 11:55:52;;;;;;;26.47;14.00;;;4.10;42.50;;;;;;5002593;28;20464;-64
2022/12/04 11:58:51;;;;;;;30.40;13.20;;;4.00;42.20;;;;;;4998107;28;20471;-65
2022/12/04 12:01:33;;;;;;;29.70;13.37;;;4.00;42.00;;;;;;4998817;28;20495;-64
2022/12/04 12:04:18;;;;;;;27.77;16.50;;;4.00;42.10;;;;;;4998696;28;20483;-65
2022/12/04 12:06:58;;;;;;;28.70;13.77;;;4.00;41.80;;;;;;4996327;28;20461;-67
2022/12/04 12:09:32;;;;;;;27.77;13.67;;;4.00;41.60;;;;;;4999142;28;20493;-64
2022/12/04 12:12:05;;;;;;;28.03;15.10;;;3.90;41.80;;;;;;4995674;28;20478;-66
2022/12/04 12:14:42;;;;;;;26.13;13.90;;;3.90;42.40;;;;;;4997181;28;20527;-65
2022/12/04 12:17:20;;;;;;;24.97;13.27;;;3.90;41.90;;;;;;5002756;28;20864;-65
2022/12/04 12:20:07;;;;;;;52.97;27.90;;;3.90;42.20;;;;;;5003153;28;20526;-66
2022/12/04 12:22:52;;;;;;;28.97;15.47;;;3.90;42.50;;;;;;4995208;28;20471;-65
2022/12/04 12:25:25;;;;;;;78.40;38.33;;;3.90;42.30;;;;;;5001441;28;20455;-64
2022/12/04 12:28:05;;;;;;;30.23;16.07;;;3.90;42.10;;;;;;5002412;28;20996;-64
2022/12/04 12:30:46;;;;;;;31.87;15.13;;;3.90;42.40;;;;;;4990940;28;20611;-64
2022/12/04 12:33:19;;;;;;;27.67;14.33;;;3.90;42.60;;;;;;5002014;28;20487;-64
2022/12/04 12:35:52;;;;;;;31.10;16.70;;;3.90;42.50;;;;;;4997422;28;20499;-64
2022/12/04 12:38:24;;;;;;;30.30;15.93;;;4.00;42.50;;;;;;5001747;28;20455;-64
2022/12/04 12:40:56;;;;;;;35.30;15.17;;;4.00;42.50;;;;;;5001965;28;20452;-64
2022/12/04 12:43:28;;;;;;;35.60;16.90;;;4.00;42.50;;;;;;4996741;28;20480;-64
2022/12/04 12:46:04;;;;;;;48.53;18.77;;;4.00;42.20;;;;;;4999303;28;20455;-67
2022/12/04 12:48:38;;;;;;;31.70;15.03;;;4.00;42.20;;;;;;5003221;28;20466;-64
2022/12/04 12:51:16;;;;;;;37.40;14.87;;;3.90;42.20;;;;;;4991031;28;20491;-64
2022/12/04 12:53:47;;;;;;;35.27;16.43;;;3.90;42.40;;;;;;4997912;28;20483;-64
2022/12/04 12:56:16;;;;;;;29.93;15.20;;;3.90;42.40;;;;;;5002175;28;20464;-64
2022/12/04 12:58:47;;;;;;;35.60;16.47;;;3.90;42.40;;;;;;4997604;28;20461;-65
2022/12/04 13:01:18;;;;;;;45.53;17.40;;;3.90;42.50;;;;;;4998577;28;20844;-65